createdAt,value
2018-04-25T00:00:31.023Z,1.83
2018-04-25T00:03:01.354Z,1.63
2018-04-25T00:05:31.878Z,1.60
2018-04-25T00:08:02.265Z,1.63
2018-04-25T00:10:32.623Z,1.60
2018-04-25T00:13:02.973Z,1.53
2018-04-25T00:15:33.366Z,1.87
2018-04-25T00:18:03.774Z,1.47
2018-04-25T00:20:34.467Z,1.50
2018-04-25T00:23:05.584Z,1.80
2018-04-25T00:25:36.006Z,1.80
2018-04-25T00:28:07.297Z,1.67
2018-04-25T00:30:38.466Z,1.63
2018-04-25T00:33:08.930Z,1.50
2018-04-25T00:35:39.353Z,1.60
2018-04-25T00:38:09.714Z,1.73
2018-04-25T00:40:40.875Z,1.57
2018-04-25T00:43:11.239Z,1.50
2018-04-25T00:45:41.701Z,1.97
2018-04-25T00:48:12.078Z,2.00
2018-04-25T00:50:42.450Z,1.70
2018-04-25T00:53:13.769Z,1.87
2018-04-25T00:55:44.143Z,1.77
2018-04-25T00:58:15.978Z,2.20
2018-04-25T01:00:46.382Z,2.20
2018-04-25T01:03:16.794Z,2.30
2018-04-25T01:05:47.195Z,1.87
2018-04-25T01:08:17.578Z,2.27
2018-04-25T01:10:48.003Z,1.90
2018-04-25T01:13:18.359Z,1.80
2018-04-25T01:15:49.558Z,1.77
2018-04-25T01:18:20.223Z,1.63
2018-04-25T01:20:50.938Z,1.77
2018-04-25T01:23:21.829Z,2.00
2018-04-25T01:25:56.150Z,1.70
2018-04-25T01:28:27.069Z,1.70
2018-04-25T01:30:58.290Z,1.87
2018-04-25T01:33:28.703Z,1.80
2018-04-25T01:35:59.154Z,1.70
2018-04-25T01:38:30.026Z,1.70
2018-04-25T01:41:00.469Z,1.80
2018-04-25T01:43:30.931Z,1.70
2018-04-25T01:46:04.775Z,1.50
2018-04-25T01:48:35.995Z,1.50
2018-04-25T01:51:04.311Z,1.67
2018-04-25T01:53:44.882Z,1.57
2018-04-25T01:56:26.039Z,1.37
2018-04-25T01:59:07.419Z,1.80
2018-04-25T02:01:36.466Z,1.50
2018-04-25T02:04:06.874Z,1.60
2018-04-25T02:06:37.219Z,1.50
2018-04-25T02:09:07.642Z,1.90
2018-04-25T02:11:38.143Z,1.60
2018-04-25T02:14:09.226Z,1.60
2018-04-25T02:16:40.486Z,1.53
2018-04-25T02:19:10.944Z,1.67
2018-04-25T02:21:41.611Z,1.53
2018-04-25T02:24:11.971Z,1.40
2018-04-25T02:26:42.357Z,1.50
2018-04-25T02:29:12.763Z,1.50
2018-04-25T02:31:43.158Z,1.60
2018-04-25T02:34:13.591Z,1.97
2018-04-25T02:36:43.978Z,1.90
2018-04-25T02:39:15.163Z,2.00
2018-04-25T02:41:45.527Z,2.43
2018-04-25T02:44:15.878Z,1.87
2018-04-25T02:46:47.003Z,1.47
2018-04-25T02:49:17.448Z,1.57
2018-04-25T02:51:48.678Z,1.67
2018-04-25T02:54:19.126Z,1.50
2018-04-25T02:56:50.278Z,1.60
2018-04-25T02:59:20.661Z,1.77
2018-04-25T03:01:51.047Z,1.70
2018-04-25T03:04:21.374Z,1.60
2018-04-25T03:06:51.807Z,1.90
2018-04-25T03:09:22.171Z,1.70
2018-04-25T03:11:52.510Z,1.63
2018-04-25T03:14:23.635Z,1.70
2018-04-25T03:16:54.033Z,2.27
2018-04-25T03:19:24.446Z,1.80
2018-04-25T03:21:56.038Z,1.47
2018-04-25T03:24:26.397Z,1.40
2018-04-25T03:26:57.563Z,2.17
2018-04-25T03:29:27.928Z,1.50
2018-04-25T03:31:58.294Z,1.70
2018-04-25T03:34:29.411Z,1.47
2018-04-25T03:36:59.809Z,1.40
2018-04-25T03:39:30.138Z,1.40
2018-04-25T03:42:00.474Z,1.57
2018-04-25T03:44:30.855Z,1.60
2018-04-25T03:47:01.310Z,1.70
2018-04-25T03:49:31.666Z,1.33
2018-04-25T03:52:02.034Z,1.63
2018-04-25T03:54:32.379Z,1.30
2018-04-25T03:57:02.730Z,1.60
2018-04-25T03:59:33.142Z,1.40
2018-04-25T04:02:03.511Z,1.60
2018-04-25T04:04:34.643Z,1.40
2018-04-25T04:07:05.218Z,1.60
2018-04-25T04:09:35.565Z,1.57
2018-04-25T04:12:05.926Z,1.73
2018-04-25T04:14:36.406Z,1.60
2018-04-25T04:17:06.778Z,1.60
2018-04-25T04:19:38.106Z,1.40
2018-04-25T04:22:08.762Z,1.33
2018-04-25T04:24:39.139Z,1.53
2018-04-25T04:27:09.869Z,1.93
2018-04-25T04:29:41.278Z,1.70
2018-04-25T04:32:12.415Z,1.93
2018-04-25T04:34:42.991Z,1.40
2018-04-25T04:37:13.449Z,1.60
2018-04-25T04:39:44.586Z,1.30
2018-04-25T04:42:14.933Z,1.53
2018-04-25T04:44:45.277Z,1.57
2018-04-25T04:47:16.454Z,1.73
2018-04-25T04:49:46.831Z,1.53
2018-04-25T04:52:17.194Z,1.73
2018-04-25T04:54:47.542Z,3.37
2018-04-25T04:57:18.134Z,1.70
2018-04-25T04:59:49.385Z,1.57
2018-04-25T05:02:20.503Z,1.70
2018-04-25T05:04:50.911Z,1.37
2018-04-25T05:07:21.286Z,1.60
2018-04-25T05:09:51.638Z,1.50
2018-04-25T05:12:22.018Z,1.50
2018-04-25T05:14:53.167Z,1.50
2018-04-25T05:17:24.303Z,1.40
2018-04-25T05:19:54.874Z,1.47
2018-04-25T05:22:25.646Z,1.40
2018-04-25T05:24:56.006Z,1.40
2018-04-25T05:27:27.138Z,1.13
2018-04-25T05:29:58.055Z,1.30
2018-04-25T05:32:28.460Z,1.70
2018-04-25T05:34:58.809Z,1.83
2018-04-25T05:37:29.191Z,1.60
2018-04-25T05:39:59.560Z,1.57
2018-04-25T05:42:29.935Z,1.57
2018-04-25T05:45:00.503Z,1.60
2018-04-25T05:47:30.958Z,1.90
2018-04-25T05:50:01.306Z,1.80
2018-04-25T05:52:31.701Z,1.87
2018-04-25T05:55:02.139Z,1.40
2018-04-25T05:57:32.519Z,1.60
2018-04-25T06:00:02.910Z,1.90
2018-04-25T06:02:34.079Z,2.00
2018-04-25T06:05:04.462Z,1.80
2018-04-25T06:07:34.850Z,1.93
2018-04-25T06:10:05.219Z,1.70
2018-04-25T06:12:36.460Z,1.53
2018-04-25T06:15:07.631Z,1.60
2018-04-25T06:17:38.024Z,1.77
2018-04-25T06:20:08.377Z,1.93
2018-04-25T06:22:39.083Z,1.63
2018-04-25T06:25:09.439Z,1.77
2018-04-25T06:27:39.809Z,1.80
2018-04-25T06:30:10.274Z,1.67
2018-04-25T06:32:41.399Z,1.50
2018-04-25T06:35:11.778Z,1.87
2018-04-25T06:37:42.130Z,1.87
2018-04-25T06:40:12.566Z,1.77
2018-04-25T06:42:42.931Z,1.67
2018-04-25T06:45:14.048Z,2.00
2018-04-25T06:47:44.430Z,1.53
2018-04-25T06:50:14.794Z,1.83
2018-04-25T06:52:45.153Z,1.50
2018-04-25T06:55:16.286Z,1.77
2018-04-25T06:57:47.450Z,1.80
2018-04-25T07:00:17.805Z,1.87
2018-04-25T07:02:48.223Z,1.40
2018-04-25T07:05:18.589Z,1.93
2018-04-25T07:07:48.959Z,1.63
2018-04-25T07:10:19.330Z,1.83
2018-04-25T07:12:49.699Z,1.73
2018-04-25T07:15:20.808Z,1.57
2018-04-25T07:17:51.178Z,1.77
2018-04-25T07:20:21.522Z,1.90
2018-04-25T07:22:52.229Z,1.73
2018-04-25T07:25:23.334Z,1.80
2018-04-25T07:27:54.177Z,1.63
2018-04-25T07:30:24.526Z,1.80
2018-04-25T07:32:55.732Z,1.53
2018-04-25T07:35:26.073Z,1.63
2018-04-25T07:37:56.454Z,1.60
2018-04-25T07:40:26.774Z,1.50
2018-04-25T07:42:57.046Z,1.53
2018-04-25T07:45:27.325Z,1.60
2018-04-25T07:47:57.822Z,1.60
2018-04-25T07:50:28.890Z,1.87
2018-04-25T07:52:59.214Z,1.80
2018-04-25T07:55:29.474Z,1.70
2018-04-25T07:57:59.773Z,1.53
2018-04-25T08:00:30.062Z,1.80
2018-04-25T08:03:01.485Z,1.70
2018-04-25T08:05:31.826Z,1.27
2018-04-25T08:08:03.506Z,1.60
2018-04-25T08:10:33.914Z,1.50
2018-04-25T08:14:14.118Z,1.30
2018-04-25T08:17:53.030Z,1.43
2018-04-25T08:20:37.834Z,1.50
2018-04-25T08:23:08.414Z,1.70
2018-04-25T08:25:39.516Z,1.40
2018-04-25T08:28:10.378Z,1.70
2018-04-25T08:30:40.682Z,1.50
2018-04-25T08:33:10.982Z,1.40
2018-04-25T08:35:41.326Z,1.40
2018-04-25T08:38:11.689Z,1.30
2018-04-25T08:40:42.739Z,1.63
2018-04-25T08:43:13.860Z,1.40
2018-04-25T08:45:44.150Z,1.40
2018-04-25T08:48:14.418Z,1.67
2018-04-25T08:50:45.466Z,1.63
2018-04-25T08:53:16.499Z,1.27
2018-04-25T08:55:47.538Z,1.27
2018-04-25T08:58:17.910Z,1.30
2018-04-25T09:00:48.270Z,1.50
2018-04-25T09:03:18.651Z,1.47
2018-04-25T09:05:49.015Z,1.50
2018-04-25T09:08:19.351Z,1.63
2018-04-25T09:10:49.675Z,1.47
2018-04-25T09:13:19.960Z,1.57
2018-04-25T09:15:50.267Z,1.37
2018-04-25T09:18:20.541Z,1.60
2018-04-25T09:20:50.878Z,1.27
2018-04-25T09:23:21.550Z,1.57
2018-04-25T09:25:51.834Z,1.17
2018-04-25T09:28:22.146Z,1.30
2018-04-25T09:30:52.566Z,1.50
2018-04-25T09:33:22.858Z,1.30
2018-04-25T09:35:53.358Z,1.20
2018-04-25T09:38:24.451Z,1.37
2018-04-25T09:40:54.762Z,1.40
2018-04-25T09:43:25.095Z,1.40
2018-04-25T09:45:55.480Z,1.40
2018-04-25T09:48:26.546Z,1.40
2018-04-25T09:50:56.863Z,1.60
2018-04-25T09:53:27.181Z,1.10
2018-04-25T09:55:57.546Z,1.50
2018-04-25T09:58:27.850Z,1.27
2018-04-25T10:00:59.478Z,1.40
2018-04-25T10:03:30.742Z,1.10
2018-04-25T10:06:01.094Z,1.20
2018-04-25T10:08:31.378Z,1.30
2018-04-25T10:11:03.134Z,1.23
2018-04-25T10:13:34.179Z,1.23
2018-04-25T10:16:04.482Z,0.90
2018-04-25T10:18:34.781Z,1.10
2018-04-25T10:21:05.092Z,1.30
2018-04-25T10:23:35.767Z,1.20
2018-04-25T10:26:06.814Z,1.23
2018-04-25T10:28:38.073Z,1.40
2018-04-25T10:31:11.503Z,1.00
2018-04-25T10:33:41.810Z,1.00
2018-04-25T10:36:12.134Z,1.10
2018-04-25T10:38:42.490Z,1.20
2018-04-25T10:41:12.935Z,1.17
2018-04-25T10:43:43.272Z,1.00
2018-04-25T10:46:14.346Z,1.13
2018-04-25T10:48:44.718Z,1.20
2018-04-25T10:51:15.002Z,1.10
2018-04-25T10:53:45.315Z,1.37
2018-04-25T10:56:16.363Z,1.50
2018-04-25T10:58:46.623Z,1.20
2018-04-25T11:01:17.039Z,1.20
2018-04-25T11:03:47.317Z,1.30
2018-04-25T11:06:17.742Z,1.00
2018-04-25T11:08:48.810Z,1.30
2018-04-25T11:11:19.135Z,1.17
2018-04-25T11:13:49.398Z,1.40
2018-04-25T11:16:19.679Z,1.30
2018-04-25T11:18:49.982Z,1.17
2018-04-25T11:21:21.054Z,1.10
2018-04-25T11:23:51.727Z,1.10
2018-04-25T11:26:22.234Z,1.20
2018-04-25T11:28:52.554Z,1.40
2018-04-25T11:31:22.881Z,1.20
2018-04-25T11:33:53.282Z,1.10
2018-04-25T11:36:23.582Z,1.20
2018-04-25T11:38:54.649Z,1.10
2018-04-25T11:41:24.954Z,1.30
2018-04-25T11:43:56.878Z,1.37
2018-04-25T11:46:27.190Z,1.10
2018-04-25T11:48:57.722Z,1.10
2018-04-25T11:51:28.819Z,1.27
2018-04-25T11:53:59.901Z,1.17
2018-04-25T11:56:30.488Z,1.43
2018-04-25T11:59:00.854Z,1.00
2018-04-25T12:01:31.198Z,1.07
2018-04-25T12:04:01.498Z,1.10
2018-04-25T12:06:31.803Z,1.17
2018-04-25T12:09:02.089Z,1.00
2018-04-25T12:11:32.624Z,1.10
2018-04-25T12:14:02.962Z,1.10
2018-04-25T12:16:34.298Z,1.63
2018-04-25T12:19:04.834Z,1.40
2018-04-25T12:21:35.150Z,1.37
2018-04-25T12:24:05.813Z,1.40
2018-04-25T12:26:36.118Z,1.90
2018-04-25T12:29:07.178Z,1.70
2018-04-25T12:31:37.467Z,1.47
2018-04-25T12:34:07.743Z,1.87
2018-04-25T12:36:38.146Z,1.63
2018-04-25T12:39:09.228Z,2.00
2018-04-25T12:41:39.632Z,2.03
2018-04-25T12:44:09.974Z,1.80
2018-04-25T12:46:40.316Z,2.10
2018-04-25T12:49:10.650Z,1.83
2018-04-25T12:51:41.023Z,1.73
2018-04-25T12:54:11.402Z,1.93
2018-04-25T12:56:41.746Z,1.80
2018-04-25T12:59:12.153Z,2.07
2018-04-25T13:01:42.508Z,2.10
2018-04-25T13:04:13.643Z,2.07
2018-04-25T13:06:43.961Z,2.00
2018-04-25T13:09:14.262Z,1.90
2018-04-25T13:11:44.665Z,2.10
2018-04-25T13:14:15.046Z,1.90
2018-04-25T13:16:46.131Z,1.80
2018-04-25T13:19:16.554Z,1.73
2018-04-25T13:21:46.856Z,1.80
2018-04-25T13:24:18.288Z,1.67
2018-04-25T13:26:48.703Z,2.17
2018-04-25T13:29:19.198Z,1.83
2018-04-25T13:31:49.478Z,1.93
2018-04-25T13:34:20.540Z,1.80
2018-04-25T13:36:51.042Z,2.00
2018-04-25T13:39:22.247Z,2.00
2018-04-25T13:41:52.570Z,1.70
2018-04-25T13:44:22.858Z,1.50
2018-04-25T13:46:54.293Z,1.70
2018-04-25T13:49:24.538Z,1.57
2018-04-25T13:51:54.846Z,1.50
2018-04-25T13:54:25.945Z,1.70
2018-04-25T13:56:56.299Z,1.60
2018-04-25T13:59:26.642Z,1.60
2018-04-25T14:01:57.329Z,1.70
2018-04-25T14:04:27.893Z,1.70
2018-04-25T14:06:58.970Z,1.60
2018-04-25T14:09:30.332Z,1.37
2018-04-25T14:12:01.078Z,1.70
2018-04-25T14:14:31.391Z,1.60
2018-04-25T14:17:01.726Z,1.50
2018-04-25T14:19:32.058Z,1.50
2018-04-25T14:22:02.378Z,1.70
2018-04-25T14:24:32.976Z,1.47
2018-04-25T14:27:03.268Z,1.43
2018-04-25T14:29:33.547Z,1.57
2018-04-25T14:34:44.997Z,3.93
2018-04-25T14:37:15.340Z,2.73
2018-04-25T14:39:46.441Z,2.40
2018-04-25T14:42:17.503Z,2.30
2018-04-25T14:44:47.843Z,2.70
2018-04-25T14:47:18.922Z,2.33
2018-04-25T14:49:49.209Z,2.80
2018-04-25T14:52:20.277Z,2.73
2018-04-25T14:54:51.399Z,2.90
2018-04-25T14:57:22.523Z,3.10
2018-04-25T14:59:52.842Z,3.03
2018-04-25T15:02:23.219Z,3.63
2018-04-25T15:04:53.546Z,2.67
2018-04-25T15:07:23.930Z,3.87
2018-04-25T15:09:54.257Z,2.87
2018-04-25T15:12:24.558Z,2.77
2018-04-25T15:14:54.947Z,2.37
2018-04-25T15:17:31.496Z,2.63
2018-04-25T15:20:02.667Z,2.37
2018-04-25T15:22:33.975Z,2.07
2018-04-25T15:25:05.396Z,2.80
2018-04-25T15:27:35.793Z,2.07
2018-04-25T15:30:06.138Z,2.17
2018-04-25T15:32:36.498Z,1.60
2018-04-25T15:35:06.827Z,1.77
2018-04-25T15:37:37.926Z,1.57
2018-04-25T15:40:08.322Z,1.33
2018-04-25T15:42:38.649Z,1.20
2018-04-25T15:45:09.291Z,1.20
2018-04-25T15:47:39.599Z,1.10
2018-04-25T15:50:09.982Z,0.87
2018-04-25T15:52:40.321Z,3.53
2018-04-25T15:55:10.631Z,0.93
2018-04-25T15:57:40.946Z,0.63
2018-04-25T16:00:11.254Z,1.00
2018-04-25T16:02:41.565Z,0.97
